Time;durP1;ratioP1;P1;durP2;ratioP2;P2;SDS_P1;SDS_P2;PMS_P1;PMS_P2;Temp;Humidity;BMP_temperature;BMP_pressure;BME280_temperature;BME280_humidity;BME280_pressure;Samples;Min_cycle;Max_cycle;Signal;HPM_P1;HPM_P2
2022/06/06 00:00:10;;;;;;;4.15;3.75;;;;;;;17.44;68.36;93345.53;5072409;28;20025;-42
2022/06/06 00:02:36;;;;;;;6.45;4.03;;;;;;;17.48;68.56;93347.84;5071273;28;20055;-40
2022/06/06 00:05:02;;;;;;;4.50;4.10;;;;;;;17.44;68.54;93348.31;5071897;28;20032;-43
2022/06/06 00:07:28;;;;;;;6.03;3.65;;;;;;;17.50;68.03;93345.22;5072225;28;20107;-41
2022/06/06 00:09:53;;;;;;;5.15;3.30;;;;;;;17.29;68.58;93353.53;5071818;28;20417;-41
2022/06/06 00:12:20;;;;;;;4.30;3.22;;;;;;;17.25;68.51;93356.06;5071991;28;20021;-40
2022/06/06 00:14:46;;;;;;;5.55;3.70;;;;;;;17.22;68.43;93334.91;5071982;28;20032;-42
2022/06/06 00:17:13;;;;;;;4.22;3.47;;;;;;;17.31;67.96;93353.66;5070432;28;20433;-40
2022/06/06 00:19:39;;;;;;;4.18;3.33;;;;;;;17.22;68.19;93354.44;5071918;28;20445;-40
2022/06/06 00:22:05;;;;;;;3.40;3.10;;;;;;;17.18;68.25;93337.44;5071828;28;20032;-40
2022/06/06 00:24:31;;;;;;;4.63;3.83;;;;;;;17.13;68.35;93344.09;5071855;28;20039;-40
2022/06/06 00:26:56;;;;;;;6.60;3.03;;;;;;;17.02;69.24;93344.72;5071480;28;20409;-42
2022/06/06 00:29:22;;;;;;;4.03;3.65;;;;;;;16.99;69.53;93343.09;5071327;28;20032;-40
2022/06/06 00:34:51;;;;;;;4.93;3.28;;;;;;;17.06;68.61;93345.00;5071309;28;20031;-40
2022/06/06 00:37:26;;;;;;;5.22;3.95;;;;;;;16.85;69.20;93342.84;5071323;28;20028;-43
2022/06/06 00:39:52;;;;;;;3.58;3.20;;;;;;;16.97;68.78;93332.56;5071602;28;20095;-42
2022/06/06 00:42:20;;;;;;;8.02;3.88;;;;;;;16.99;69.33;93338.25;5069960;28;20020;-41
2022/06/06 00:44:46;;;;;;;8.57;4.45;;;;;;;17.02;69.24;93330.78;5071068;28;20036;-40
2022/06/06 00:47:27;;;;;;;4.45;3.90;;;;;;;16.92;69.62;93327.28;5071346;28;20034;-39
2022/06/06 00:50:09;;;;;;;4.63;3.67;;;;;;;16.98;69.91;93330.50;5071327;28;20096;-40
2022/06/06 00:52:38;;;;;;;3.92;3.58;;;;;;;16.97;69.76;93317.88;5070938;28;20103;-40
2022/06/06 00:55:19;;;;;;;7.13;4.07;;;;;;;16.89;69.96;93309.66;5071253;28;20479;-42
2022/06/06 00:57:55;;;;;;;5.00;4.40;;;;;;;16.96;69.90;93321.97;5070879;28;20095;-40
2022/06/06 01:00:21;;;;;;;3.90;3.50;;;;;;;16.83;69.92;93322.50;5070466;28;20020;-40
2022/06/06 01:02:51;;;;;;;5.35;3.70;;;;;;;16.74;69.95;93314.88;5070677;28;20525;-41
2022/06/06 01:05:18;;;;;;;9.43;4.45;;;;;;;16.75;69.59;93314.28;5069846;28;20025;-40
2022/06/06 01:07:43;;;;;;;5.35;3.67;;;;;;;16.60;69.86;93298.66;5070687;28;20505;-43
2022/06/06 01:10:09;;;;;;;6.65;4.20;;;;;;;16.63;70.29;93303.03;5070995;28;20017;-41
2022/06/06 01:12:35;;;;;;;8.88;5.78;;;;;;;16.44;71.63;93297.47;5070372;28;20020;-42
2022/06/06 01:15:04;;;;;;;8.73;5.97;;;;;;;16.48;72.29;93292.19;5069390;28;20035;-40
2022/06/06 01:17:35;;;;;;;6.78;5.47;;;;;;;16.66;71.49;93284.38;5069449;28;20429;-40
2022/06/06 01:20:01;;;;;;;8.13;6.40;;;;;;;16.66;72.03;93273.22;5070495;28;20027;-41
2022/06/06 01:22:54;;;;;;;8.07;6.68;;;;;;;16.77;72.33;93267.03;5068778;28;20020;-45
2022/06/06 01:25:37;;;;;;;8.38;6.35;;;;;;;16.84;70.67;93260.53;5070539;28;20020;-40
2022/06/06 01:28:18;;;;;;;9.23;6.78;;;;;;;16.85;71.02;93267.56;5070476;28;20020;-41
2022/06/06 01:30:46;;;;;;;7.90;6.38;;;;;;;16.93;70.54;93267.41;5070386;28;20541;-41
2022/06/06 01:33:14;;;;;;;8.90;6.47;;;;;;;16.83;70.83;93269.50;5070197;28;20072;-40
2022/06/06 01:35:42;;;;;;;8.90;6.85;;;;;;;16.85;70.58;93253.63;5070431;28;20024;-41
2022/06/06 01:38:09;;;;;;;9.07;8.18;;;;;;;16.87;70.16;93237.03;5070335;28;20024;-40
2022/06/06 01:40:54;;;;;;;8.75;6.55;;;;;;;16.72;70.99;93234.63;5069320;28;20021;-42
2022/06/06 01:43:31;;;;;;;10.50;7.00;;;;;;;16.90;71.77;93235.84;5070345;28;20104;-41
2022/06/06 01:46:03;;;;;;;8.45;7.13;;;;;;;16.96;71.67;93222.31;5070222;28;20409;-42
2022/06/06 01:48:33;;;;;;;14.27;8.90;;;;;;;17.01;71.51;93212.16;5069085;28;20020;-40
2022/06/06 01:50:59;;;;;;;7.88;6.65;;;;;;;17.03;70.97;93203.91;5069327;28;20094;-40
2022/06/06 01:53:25;;;;;;;7.25;6.18;;;;;;;16.80;71.47;93171.06;5068838;28;20028;-40
2022/06/06 01:55:52;;;;;;;7.70;6.05;;;;;;;16.98;71.89;93193.84;5070468;28;20051;-41
2022/06/06 01:58:21;;;;;;;8.75;6.57;;;;;;;17.09;71.82;93212.69;5070415;28;20110;-43
2022/06/06 02:00:47;;;;;;;8.38;5.88;;;;;;;17.08;71.59;93228.72;5068529;28;20020;-41
2022/06/06 02:03:12;;;;;;;7.35;6.55;;;;;;;16.97;70.84;93223.03;5068731;28;20044;-43
2022/06/06 02:05:38;;;;;;;11.65;7.30;;;;;;;16.85;71.44;93244.56;5070312;28;20025;-43
2022/06/06 02:08:05;;;;;;;10.18;8.40;;;;;;;16.59;72.24;93224.69;5070082;28;20025;-40
2022/06/06 02:10:30;;;;;;;8.00;7.20;;;;;;;16.84;72.42;93265.38;5070251;28;20029;-42
2022/06/06 02:12:56;;;;;;;12.95;8.27;;;;;;;16.83;73.24;93273.00;5069877;28;20020;-41
2022/06/06 02:15:23;;;;;;;12.85;8.00;;;;;;;16.93;72.64;93279.28;5069877;28;20032;-45
2022/06/06 02:17:49;;;;;;;16.30;8.70;;;;;;;17.02;72.92;93294.50;5069941;28;20074;-43
2022/06/06 02:20:18;;;;;;;15.60;7.28;;;;;;;17.13;72.92;93358.75;5070383;28;20027;-42
2022/06/06 02:22:43;;;;;;;5.47;4.67;;;;;;;17.17;72.90;93430.84;5069887;28;20033;-42
2022/06/06 02:25:10;;;;;;;6.50;4.38;;;;;;;16.85;74.53;93401.41;5070144;28;20089;-40
2022/06/06 02:27:37;;;;;;;14.82;5.47;;;;;;;17.02;80.63;93364.94;5070057;28;20035;-39
2022/06/06 02:30:05;;;;;;;8.23;5.30;;;;;;;16.92;86.08;93372.63;5070094;28;20131;-40
2022/06/06 02:32:31;;;;;;;0.20;0.20;;;;;;;16.84;88.72;93371.34;5069950;28;20119;-43
2022/06/06 02:34:57;;;;;;;0.80;0.52;;;;;;;16.66;90.15;93356.88;5070875;28;20139;-44
2022/06/06 02:37:23;;;;;;;8.20;1.67;;;;;;;16.78;90.15;93371.66;5073946;28;20103;-44
2022/06/06 02:39:48;;;;;;;0.28;0.28;;;;;;;16.99;88.67;93412.84;5073901;28;20503;-43
2022/06/06 02:42:14;;;;;;;1.35;1.33;;;;;;;17.04;89.66;93453.63;5073789;28;20027;-46
2022/06/06 02:44:39;;;;;;;0.10;0.10;;;;;;;17.15;90.02;93492.09;5073757;28;20055;-43
2022/06/06 02:47:05;;;;;;;0.20;0.20;;;;;;;17.25;90.10;93520.69;5073689;28;20017;-43
2022/06/06 02:49:33;;;;;;;0.45;0.45;;;;;;;17.26;89.94;93530.53;5073441;28;20028;-47
2022/06/06 02:52:02;;;;;;;0.20;0.20;;;;;;;17.32;89.96;93533.75;5073420;28;20027;-47
2022/06/06 02:54:27;;;;;;;0.57;0.57;;;;;;;17.47;88.92;93491.53;5073630;28;20035;-42
2022/06/06 02:56:53;;;;;;;0.10;0.10;;;;;;;17.50;88.26;93490.38;5073203;28;20043;-44
2022/06/06 02:59:20;;;;;;;0.73;0.73;;;;;;;17.54;89.05;93475.97;5073402;28;20051;-41
2022/06/06 03:01:45;;;;;;;16.35;0.90;;;;;;;17.46;90.03;93456.56;5072477;28;20031;-47
2022/06/06 03:04:11;;;;;;;0.63;0.63;;;;;;;17.40;90.10;93464.53;5073009;28;20036;-44
2022/06/06 03:06:45;;;;;;;0.30;0.30;;;;;;;17.42;88.78;93437.50;5073328;28;20039;-43
2022/06/06 03:09:38;;;;;;;0.10;0.10;;;;;;;17.37;90.90;93458.06;5073304;28;20475;-42
2022/06/06 03:12:19;;;;;;;0.10;0.10;;;;;;;17.33;90.58;93451.47;5071724;28;20028;-42
2022/06/06 03:15:07;;;;;;;44.30;9.50;;;;;;;17.38;91.84;93394.63;5073152;28;20043;-40
2022/06/06 03:21:06;;;;;;;8.25;1.30;;;;;;;17.13;92.42;93397.09;5072917;28;20035;-45
2022/06/06 03:23:57;;;;;;;2.13;1.95;;;;;;;16.88;95.01;93424.59;5072174;28;20081;-46
2022/06/06 03:26:42;;;;;;;0.10;0.10;;;;;;;16.90;95.31;93435.91;5072972;28;20031;-43
2022/06/06 03:29:42;;;;;;;0.10;0.10;;;;;;;17.00;95.50;93433.84;5072894;28;20035;-43
2022/06/06 03:32:26;;;;;;;0.20;0.20;;;;;;;17.15;94.97;93422.34;5071349;28;20028;-47
2022/06/06 03:35:15;;;;;;;0.60;0.60;;;;;;;17.08;94.33;93423.22;5072851;28;20138;-47
2022/06/06 03:37:48;;;;;;;0.10;0.10;;;;;;;17.16;95.03;93413.38;5066850;28;20101;-44
2022/06/06 03:40:18;;;;;;;0.10;0.10;;;;;;;17.27;93.80;93372.94;5072440;28;20545;-46
2022/06/06 03:43:02;;;;;;;0.20;0.20;;;;;;;17.16;94.40;93396.63;5072700;28;20166;-43
2022/06/06 03:45:38;;;;;;;4.75;2.38;;;;;;;17.24;94.44;93318.31;5071975;28;20024;-48
2022/06/06 03:48:22;;;;;;;0.28;0.28;;;;;;;17.22;94.15;93240.06;5071136;28;20351;-45
2022/06/06 03:51:00;;;;;;;0.10;0.10;;;;;;;16.97;95.48;93303.94;5072549;28;20025;-47
2022/06/06 03:53:34;;;;;;;0.28;0.28;;;;;;;16.97;97.29;93357.66;5072334;28;20024;-45
2022/06/06 03:55:59;;;;;;;0.10;0.10;;;;;;;16.87;97.98;93384.81;5072555;28;20093;-49
2022/06/06 03:58:28;;;;;;;0.10;0.10;;;;;;;16.87;98.86;93384.13;5072309;28;20024;-46
2022/06/06 04:00:55;;;;;;;0.73;0.73;;;;;;;16.99;98.36;93410.03;5071667;28;20024;-46
2022/06/06 04:03:21;;;;;;;0.30;0.30;;;;;;;17.04;97.55;93415.31;5070718;28;20509;-47
2022/06/06 04:05:47;;;;;;;0.40;0.40;;;;;;;16.99;97.50;93416.38;5070731;28;20025;-48
2022/06/06 04:08:13;;;;;;;0.30;0.30;;;;;;;17.07;96.95;93421.75;5070993;28;20020;-46
2022/06/06 04:10:57;;;;;;;1.13;1.13;;;;;;;16.99;97.22;93410.03;5071906;28;20024;-47
2022/06/06 04:13:41;;;;;;;0.10;0.10;;;;;;;16.86;98.68;93397.31;5072039;28;20031;-48
2022/06/06 04:16:15;;;;;;;0.25;0.25;;;;;;;17.03;100.00;93407.53;5071368;28;20447;-45
2022/06/06 04:19:04;;;;;;;0.10;0.10;;;;;;;17.11;99.15;93406.03;5070986;28;20043;-46
2022/06/06 04:21:51;;;;;;;0.20;0.20;;;;;;;17.11;98.79;93394.13;5071688;28;20707;-45
2022/06/06 04:24:39;;;;;;;0.32;0.32;;;;;;;17.24;99.25;93402.75;5071622;28;20035;-45
2022/06/06 04:27:07;;;;;;;0.47;0.47;;;;;;;17.28;99.07;93400.22;5071510;28;20489;-48
2022/06/06 04:30:01;;;;;;;0.43;0.43;;;;;;;17.41;99.68;93391.38;5071843;28;20429;-47
2022/06/06 04:32:49;;;;;;;0.47;0.47;;;;;;;17.51;99.56;93380.19;5070497;28;20021;-47
2022/06/06 04:35:37;;;;;;;0.10;0.10;;;;;;;17.56;97.39;93384.72;5071405;28;20497;-47
2022/06/06 04:38:10;;;;;;;0.10;0.10;;;;;;;17.70;97.24;93379.34;5071674;28;20021;-48
2022/06/06 04:41:03;;;;;;;0.10;0.10;;;;;;;17.83;96.85;93370.44;5070052;28;20054;-48
2022/06/06 04:43:56;;;;;;;0.10;0.10;;;;;;;17.96;97.60;93370.63;5071573;28;20052;-47
2022/06/06 04:46:31;;;;;;;0.35;0.35;;;;;;;18.06;97.51;93368.50;5071495;28;20067;-43
2022/06/06 04:48:57;;;;;;;0.82;0.82;;;;;;;18.18;96.34;93380.47;5070265;28;20036;-45
2022/06/06 04:51:22;;;;;;;0.20;0.20;;;;;;;18.32;96.21;93393.91;5069854;28;20056;-42
2022/06/06 04:53:53;;;;;;;0.10;0.10;;;;;;;18.41;95.76;93398.69;5071228;28;20051;-45
2022/06/06 04:56:19;;;;;;;0.10;0.10;;;;;;;18.47;93.32;93393.50;5071008;28;20032;-44
2022/06/06 04:58:48;;;;;;;0.47;0.47;;;;;;;18.65;93.44;93400.97;5069347;28;20103;-45
2022/06/06 05:01:14;;;;;;;0.17;0.17;;;;;;;18.74;92.71;93396.63;5070443;28;20468;-44
2022/06/06 05:03:40;;;;;;;1.02;1.02;;;;;;;18.79;91.52;93387.88;5070729;28;20844;-45
2022/06/06 05:06:08;;;;;;;0.25;0.25;;;;;;;18.90;89.26;93380.84;5071027;28;20034;-43
2022/06/06 05:08:52;;;;;;;0.10;0.10;;;;;;;18.96;88.33;93384.03;5070767;28;20044;-43
2022/06/06 05:11:21;;;;;;;1.00;0.52;;;;;;;19.07;86.85;93376.97;5070984;28;20464;-44
2022/06/06 05:14:31;;;;;;;1.25;0.65;;;;;;;19.19;86.65;93377.72;5070836;28;20067;-45
2022/06/06 05:17:04;;;;;;;0.20;0.20;;;;;;;19.29;86.42;93386.75;5032301;28;20044;-41
2022/06/06 05:20:02;;;;;;;0.20;0.20;;;;;;;19.41;85.14;93385.44;5069773;28;20466;-42
2022/06/06 05:22:46;;;;;;;1.30;1.20;;;;;;;19.52;85.90;93379.09;5068312;28;20063;-45
2022/06/06 05:25:33;;;;;;;2.47;2.30;;;;;;;19.60;85.18;93381.63;5070869;28;20043;-41
2022/06/06 05:28:05;;;;;;;0.10;0.10;;;;;;;19.71;84.94;93392.09;5070805;28;20476;-43
2022/06/06 05:30:31;;;;;;;0.30;0.30;;;;;;;19.73;82.37;93383.09;5070477;28;20029;-42
2022/06/06 05:33:02;;;;;;;0.20;0.20;;;;;;;19.79;82.92;93383.47;5070575;28;20032;-45
2022/06/06 05:35:32;;;;;;;0.22;0.22;;;;;;;19.80;80.86;93390.50;5070647;28;20024;-45
2022/06/06 05:37:57;;;;;;;0.10;0.10;;;;;;;19.86;82.47;93388.09;5070326;28;20063;-44
2022/06/06 05:40:37;;;;;;;6.35;1.98;;;;;;;19.94;81.79;93380.88;5070244;28;20120;-44
2022/06/06 05:43:24;;;;;;;0.13;0.13;;;;;;;20.11;83.13;93379.72;5070913;28;20080;-43
2022/06/06 05:46:03;;;;;;;0.15;0.15;;;;;;;20.17;80.29;93382.88;5069066;28;20036;-42
2022/06/06 05:48:39;;;;;;;;;;;;;;;20.29;81.36;93378.72;5071090;28;20028;-45
2022/06/06 05:51:23;;;;;;;0.17;0.17;;;;;;;20.32;80.79;93374.69;5069362;28;19909;-45
2022/06/06 05:54:04;;;;;;;1.00;1.00;;;;;;;20.30;78.79;93373.84;5070346;28;20029;-41
2022/06/06 05:56:36;;;;;;;0.90;0.90;;;;;;;20.32;79.01;93371.88;5069106;28;20122;-40
2022/06/06 05:59:13;;;;;;;0.10;0.10;;;;;;;20.32;78.62;93369.09;5050419;28;20041;-41
2022/06/06 06:01:57;;;;;;;1.02;1.02;;;;;;;20.33;79.04;93375.44;5061368;28;20473;-43
2022/06/06 06:04:41;;;;;;;0.13;0.13;;;;;;;20.47;80.20;93378.28;5070359;28;20033;-45
2022/06/06 06:07:09;;;;;;;0.20;0.20;;;;;;;20.59;80.51;93370.56;5070403;28;20405;-43
2022/06/06 06:09:59;;;;;;;0.20;0.20;;;;;;;20.66;78.71;93369.56;5072629;28;20513;-44
2022/06/06 06:12:37;;;;;;;0.70;0.70;;;;;;;20.82;78.88;93370.44;5074075;28;20451;-42
2022/06/06 06:15:28;;;;;;;0.93;0.93;;;;;;;20.90;78.72;93365.25;5072992;28;20566;-43
2022/06/06 06:29:26;;;;;;;0.17;0.17;;;;;;;22.27;73.80;93370.38;5128428;27;20621;-39
2022/06/06 06:32:10;;;;;;;0.75;0.75;;;;;;;22.14;73.35;93376.78;5128780;27;20102;-39
2022/06/06 06:34:59;;;;;;;0.00;0.00;;;;;;;21.90;74.25;93381.16;5126233;27;20613;-39
2022/06/06 06:38:06;;;;;;;0.30;0.30;;;;;;;21.70;75.22;93399.78;5106862;28;20042;-39
2022/06/06 06:40:40;;;;;;;0.80;0.80;;;;;;;21.39;75.61;93382.69;5069780;28;20110;-39
2022/06/06 06:43:20;;;;;;;0.45;0.45;;;;;;;21.26;78.90;93383.38;5106895;28;20027;-39
2022/06/06 06:45:51;;;;;;;0.10;0.10;;;;;;;21.28;79.20;93372.25;5107703;28;20016;-39
2022/06/06 06:48:37;;;;;;;0.15;0.15;;;;;;;21.35;78.64;93377.59;5107618;28;20480;-39
2022/06/06 06:51:21;;;;;;;0.10;0.10;;;;;;;21.48;77.58;93376.13;5107585;28;20039;-39
2022/06/06 06:54:12;;;;;;;0.95;0.95;;;;;;;21.69;76.90;93379.38;5126403;28;20023;-39
2022/06/06 06:56:48;;;;;;;0.20;0.20;;;;;;;21.87;75.61;93385.25;5126654;28;20027;-39
2022/06/06 06:59:38;;;;;;;0.20;0.20;;;;;;;22.01;74.27;93382.41;5128219;27;20023;-39
2022/06/06 07:08:34;;;;;;;0.00;0.00;;;;;;;22.87;72.30;93364.16;5126885;28;20022;-39
2022/06/06 07:11:29;;;;;;;1.40;1.38;;;;;;;23.48;68.86;93358.53;5127945;27;20023;-39
2022/06/06 07:14:05;;;;;;;0.35;0.35;;;;;;;24.21;68.07;93362.47;5126848;28;20050;-40
2022/06/06 07:16:36;;;;;;;0.20;0.20;;;;;;;24.90;63.17;93363.94;5126580;28;20031;-40
2022/06/06 07:19:17;;;;;;;0.85;0.85;;;;;;;24.96;62.42;93363.44;5127479;27;20027;-40
2022/06/06 07:21:48;;;;;;;0.20;0.20;;;;;;;24.60;62.94;93365.50;5126238;28;20102;-40
2022/06/06 07:24:20;;;;;;;0.32;0.32;;;;;;;24.11;64.44;93388.16;5127416;27;20027;-39
2022/06/06 07:26:46;;;;;;;0.25;0.17;;;;;;;23.55;67.72;93361.00;5117049;27;20024;-38
2022/06/06 07:29:14;;;;;;;0.10;0.10;;;;;;;23.02;68.32;93355.03;5099808;28;20509;-38
2022/06/06 07:32:01;;;;;;;0.63;0.63;;;;;;;22.77;71.09;93372.16;5093243;28;20027;-39
2022/06/06 07:34:40;;;;;;;0.00;0.00;;;;;;;23.02;71.77;93360.66;5093454;28;20031;-38
2022/06/06 07:37:28;;;;;;;0.28;0.28;;;;;;;23.89;70.37;93353.31;5092210;28;20028;-38
2022/06/06 07:40:11;;;;;;;0.22;0.22;;;;;;;25.11;65.22;93366.16;5093361;28;20123;-38
2022/06/06 07:42:49;;;;;;;0.10;0.10;;;;;;;25.72;62.25;93382.63;5092987;28;20497;-39
2022/06/06 07:45:24;;;;;;;0.10;0.10;;;;;;;25.58;61.35;93383.53;5093273;28;20032;-39
2022/06/06 07:48:26;;;;;;;0.00;0.00;;;;;;;25.22;63.08;93387.78;5093143;28;20104;-39
2022/06/06 07:51:06;;;;;;;0.10;0.10;;;;;;;24.73;63.73;93387.94;5092914;28;20107;-39
2022/06/06 07:53:50;;;;;;;0.20;0.20;;;;;;;24.33;63.40;93391.19;5091859;28;20032;-39
2022/06/06 07:56:33;;;;;;;0.10;0.10;;;;;;;23.84;65.70;93394.72;5092025;28;20035;-39
2022/06/06 07:59:29;;;;;;;0.13;0.13;;;;;;;23.63;66.82;93394.47;5092752;28;20497;-39
2022/06/06 08:01:57;;;;;;;0.00;0.00;;;;;;;23.49;67.00;93394.56;5092824;28;20028;-40
2022/06/06 08:04:33;;;;;;;0.00;0.00;;;;;;;24.19;65.81;93382.13;5092665;28;20488;-39
2022/06/06 08:07:05;;;;;;;0.10;0.10;;;;;;;24.62;63.62;93388.19;5090959;28;20428;-39
2022/06/06 08:09:56;;;;;;;0.10;0.10;;;;;;;24.85;61.29;93382.09;5090707;28;20407;-40
2022/06/06 08:12:34;;;;;;;0.30;0.30;;;;;;;25.10;60.87;93392.25;5091301;28;20110;-40
2022/06/06 08:15:21;;;;;;;0.20;0.20;;;;;;;25.06;61.92;93395.63;5091627;28;20028;-39
2022/06/06 08:18:11;;;;;;;0.32;0.32;;;;;;;24.82;61.73;93408.78;5092307;28;20038;-40
2022/06/06 08:20:52;;;;;;;0.10;0.10;;;;;;;24.35;63.15;93423.03;5092311;28;20036;-39
2022/06/06 08:23:19;;;;;;;0.10;0.10;;;;;;;23.78;62.86;93438.84;5092291;28;20056;-39
2022/06/06 08:25:47;;;;;;;0.10;0.10;;;;;;;23.10;65.11;93456.06;5090979;28;20107;-39
2022/06/06 09:42:31;;;;;;;0.10;0.10;;;;;;;19.47;81.29;93450.19;5090719;28;20124;-38
2022/06/06 09:44:57;;;;;;;0.10;0.10;;;;;;;19.48;81.52;93440.47;5090783;28;20039;-38
2022/06/06 09:47:41;;;;;;;0.00;0.00;;;;;;;19.50;81.69;93432.19;5090910;28;20019;-38
2022/06/06 09:50:09;;;;;;;0.10;0.10;;;;;;;19.55;80.35;93431.09;5090646;28;20107;-38
2022/06/06 09:52:43;;;;;;;0.10;0.10;;;;;;;19.57;81.49;93425.63;5090668;28;20387;-38
2022/06/06 10:01:44;;;;;;;0.22;0.22;;;;;;;19.46;81.98;93414.41;5090787;28;20039;-38
2022/06/06 10:04:30;;;;;;;0.10;0.10;;;;;;;19.55;83.14;93417.09;5090727;28;20106;-38
2022/06/06 10:07:07;;;;;;;0.63;0.63;;;;;;;19.64;82.27;93416.22;5090765;28;20099;-38
2022/06/06 10:09:38;;;;;;;1.30;0.93;;;;;;;19.68;83.00;93410.84;5090638;28;20428;-38
2022/06/06 10:12:48;;;;;;;0.32;0.32;;;;;;;19.79;82.35;93411.47;5090541;28;20031;-38
2022/06/06 10:15:19;;;;;;;0.10;0.10;;;;;;;19.80;82.46;93422.06;5052630;28;20029;-39
2022/06/06 10:17:44;;;;;;;0.10;0.10;;;;;;;19.97;80.96;93423.75;5090223;28;20067;-38
2022/06/06 10:20:29;;;;;;;0.10;0.10;;;;;;;20.12;80.79;93437.25;5090583;28;20099;-39
2022/06/06 10:23:08;;;;;;;0.52;0.52;;;;;;;20.29;80.69;93451.63;5089457;28;20389;-38
2022/06/06 10:25:46;;;;;;;0.10;0.10;;;;;;;20.39;79.83;93459.91;5094635;28;20116;-37
2022/06/06 10:28:23;;;;;;;0.10;0.10;;;;;;;20.40;78.54;93470.50;5110863;28;20107;-38
2022/06/06 10:30:57;;;;;;;0.10;0.10;;;;;;;20.47;78.66;93463.16;5110858;28;20072;-38
2022/06/06 10:34:07;;;;;;;0.10;0.10;;;;;;;20.58;78.30;93473.63;5109291;28;20055;-38
2022/06/06 10:36:48;;;;;;;0.40;0.40;;;;;;;20.68;79.33;93476.28;5067366;28;20024;-37
2022/06/06 10:39:40;;;;;;;1.75;1.42;;;;;;;20.80;78.81;93468.53;5067530;28;20032;-38
2022/06/06 10:42:14;;;;;;;0.73;0.73;;;;;;;20.98;77.98;93472.38;5099022;28;20425;-38
2022/06/06 10:45:14;;;;;;;1.17;1.17;;;;;;;21.11;78.20;93469.63;5110745;28;20463;-38
2022/06/06 10:47:57;;;;;;;0.22;0.22;;;;;;;21.36;76.79;93465.34;5109916;28;20126;-38
2022/06/06 10:51:36;;;;;;;0.20;0.20;;;;;;;21.51;75.50;93464.78;5110344;28;20492;-38
2022/06/06 10:53:49;;;;;;;0.80;0.80;;;;;;;21.70;73.51;93453.19;5110220;28;20115;-38
2022/06/06 10:56:26;;;;;;;0.40;0.40;;;;;;;21.78;71.49;93459.94;5110650;28;20415;-38
2022/06/06 10:59:27;;;;;;;0.40;0.40;;;;;;;21.92;72.95;93453.66;5091919;28;20477;-38
2022/06/06 11:02:04;;;;;;;0.50;0.50;;;;;;;21.91;71.81;93452.91;5110208;28;20032;-38
2022/06/06 11:04:56;;;;;;;0.20;0.20;;;;;;;21.96;72.43;93448.94;5112078;28;20432;-38
2022/06/06 11:08:03;;;;;;;6.82;1.90;;;;;;;22.30;72.30;93453.53;5097330;28;20035;-38
2022/06/06 11:10:46;;;;;;;0.30;0.30;;;;;;;22.78;71.30;93448.88;5099383;28;20063;-39
2022/06/06 11:13:36;;;;;;;1.98;0.50;;;;;;;22.85;68.92;93453.47;5113998;28;20457;-38
2022/06/06 11:16:14;;;;;;;0.20;0.20;;;;;;;23.15;69.00;93455.63;5113869;28;20023;-38
2022/06/06 11:18:58;;;;;;;0.00;0.00;;;;;;;23.30;66.10;93454.22;5112580;28;20507;-39
2022/06/06 11:21:26;;;;;;;0.20;0.20;;;;;;;23.18;66.51;93457.19;5114047;28;20023;-38
2022/06/06 11:23:59;;;;;;;0.40;0.40;;;;;;;23.02;67.76;93452.88;5096517;28;20405;-39
2022/06/06 11:26:59;;;;;;;0.20;0.20;;;;;;;22.98;67.02;93444.22;5103002;28;20036;-39
2022/06/06 11:29:38;;;;;;;0.10;0.10;;;;;;;22.96;66.47;93436.41;5070436;28;20055;-39
2022/06/06 11:32:31;;;;;;;0.10;0.10;;;;;;;23.09;67.96;93444.06;5108688;28;20114;-38
2022/06/06 11:35:15;;;;;;;0.85;0.85;;;;;;;23.20;65.50;93434.75;5113839;28;20027;-38
2022/06/06 11:37:41;;;;;;;0.20;0.20;;;;;;;23.21;65.00;93435.47;5113429;27;20035;-39
2022/06/06 11:40:45;;;;;;;0.00;0.00;;;;;;;23.21;65.02;93432.66;5113297;28;20038;-39
2022/06/06 11:43:37;;;;;;;0.75;0.75;;;;;;;23.20;66.86;93426.28;5113400;28;20103;-38
2022/06/06 11:46:22;;;;;;;0.00;0.00;;;;;;;23.38;65.09;93420.81;5113395;28;20033;-38
2022/06/06 11:48:50;;;;;;;0.88;0.88;;;;;;;23.46;64.34;93411.97;5113508;28;20114;-38
2022/06/06 11:51:44;;;;;;;0.17;0.17;;;;;;;23.31;65.20;93414.13;5113578;28;20032;-38
2022/06/06 11:54:13;;;;;;;0.10;0.10;;;;;;;23.35;65.01;93411.53;5112280;28;20028;-38
2022/06/06 11:56:47;;;;;;;0.10;0.10;;;;;;;23.29;66.14;93407.69;5113171;28;20027;-38
2022/06/06 11:59:28;;;;;;;0.35;0.35;;;;;;;23.23;65.97;93394.06;5113331;28;20432;-38
2022/06/06 12:02:30;;;;;;;7.47;1.17;;;;;;;23.29;64.98;93396.41;5113377;28;20023;-38
2022/06/06 12:04:58;;;;;;;0.30;0.30;;;;;;;23.21;63.70;93393.22;5111869;28;20028;-38
2022/06/06 12:07:35;;;;;;;0.20;0.20;;;;;;;23.32;65.37;93397.97;5113229;27;20429;-38
2022/06/06 12:10:11;;;;;;;0.50;0.35;;;;;;;23.44;66.58;93409.06;5113201;28;20024;-39
2022/06/06 12:12:48;;;;;;;0.17;0.17;;;;;;;23.58;67.18;93401.28;5112883;28;20518;-38
2022/06/06 12:15:17;;;;;;;0.35;0.35;;;;;;;23.65;65.47;93409.34;5112692;28;20019;-39
2022/06/06 12:18:29;;;;;;;0.10;0.10;;;;;;;23.69;65.34;93415.16;5112480;28;20031;-38
2022/06/06 12:21:03;;;;;;;0.63;0.63;;;;;;;23.70;65.38;93408.19;5092330;28;20114;-39
2022/06/06 12:24:00;;;;;;;2.00;1.40;;;;;;;23.60;65.58;93409.81;5092204;28;20024;-38
2022/06/06 12:27:03;;;;;;;1.05;1.05;;;;;;;23.79;64.18;93412.09;5102999;28;20019;-39
2022/06/06 12:29:28;;;;;;;0.00;0.00;;;;;;;23.84;64.30;93408.81;5112826;28;20038;-38
2022/06/06 12:32:04;;;;;;;0.20;0.20;;;;;;;23.63;63.82;93412.09;5112406;28;20023;-39
2022/06/06 12:34:40;;;;;;;2.10;0.88;;;;;;;23.58;65.70;93416.09;5111496;28;20019;-38
2022/06/06 12:37:35;;;;;;;0.43;0.43;;;;;;;23.74;65.99;93418.91;5094089;28;20431;-39
2022/06/06 12:40:00;;;;;;;0.00;0.00;;;;;;;23.81;63.85;93410.09;5110953;28;20055;-39
2022/06/06 12:42:36;;;;;;;0.20;0.20;;;;;;;23.81;65.43;93412.91;5112542;28;20114;-38
2022/06/06 12:45:23;;;;;;;0.60;0.60;;;;;;;23.87;62.40;93429.34;5112221;28;20028;-39
2022/06/06 12:48:03;;;;;;;0.43;0.43;;;;;;;23.79;64.33;93426.91;5112127;28;20541;-38
2022/06/06 12:51:02;;;;;;;2.00;0.30;;;;;;;23.80;63.25;93411.44;5111253;28;20423;-39
2022/06/06 12:53:43;;;;;;;;;;;;;;;23.80;62.24;93417.06;5059024;28;20035;-39
2022/06/06 12:56:39;;;;;;;0.20;0.20;;;;;;;23.91;62.61;93418.25;5112063;27;19904;-39
2022/06/06 12:59:17;;;;;;;0.00;0.00;;;;;;;24.10;62.88;93412.78;5112113;28;20098;-38
2022/06/06 13:01:59;;;;;;;4.07;0.43;;;;;;;24.19;61.14;93418.81;5111815;28;20031;-38
2022/06/06 13:04:37;;;;;;;3.30;1.30;;;;;;;24.30;61.36;93415.06;5111755;28;20504;-39
2022/06/06 13:07:18;;;;;;;0.22;0.22;;;;;;;24.26;60.21;93418.41;5110580;28;20024;-39
2022/06/06 13:10:03;;;;;;;0.00;0.00;;;;;;;24.17;60.28;93415.91;5111729;28;20083;-39
2022/06/06 13:13:03;;;;;;;0.00;0.00;;;;;;;24.04;60.58;93420.25;5111709;28;20401;-39
2022/06/06 13:15:40;;;;;;;0.20;0.20;;;;;;;23.76;61.52;93424.63;5111736;28;20030;-39
2022/06/06 13:18:34;;;;;;;1.45;1.35;;;;;;;23.70;61.34;93419.47;5111455;28;20027;-38
2022/06/06 13:21:18;;;;;;;0.13;0.13;;;;;;;23.70;63.63;93411.00;5111878;28;20399;-39
2022/06/06 13:24:07;;;;;;;0.20;0.20;;;;;;;23.77;63.77;93401.47;5111671;28;20024;-39
2022/06/06 13:26:42;;;;;;;0.32;0.30;;;;;;;23.75;62.80;93392.19;5091919;28;20079;-38
2022/06/06 13:29:07;;;;;;;1.15;1.00;;;;;;;23.73;62.53;93375.16;5089801;28;20523;-38
2022/06/06 13:31:39;;;;;;;0.17;0.17;;;;;;;23.64;63.46;93376.91;5089958;28;20095;-39
2022/06/06 13:34:28;;;;;;;0.73;0.73;;;;;;;23.59;62.04;93375.25;5091238;28;20028;-39
2022/06/06 13:36:54;;;;;;;0.65;0.65;;;;;;;23.45;62.78;93373.91;5090720;28;20024;-39
2022/06/06 13:39:25;;;;;;;0.63;0.63;;;;;;;23.23;59.60;93376.41;5090874;28;20119;-38
2022/06/06 13:42:05;;;;;;;0.00;0.00;;;;;;;23.18;61.80;93361.41;5090612;28;20132;-39
2022/06/06 13:45:03;;;;;;;0.40;0.40;;;;;;;23.28;59.10;93361.88;5091009;28;20032;-38
2022/06/06 13:48:01;;;;;;;;;;;;;;;23.35;60.37;93369.25;5091531;28;20091;-38
2022/06/06 13:51:08;;;;;;;0.83;0.83;;;;;;;23.24;60.67;93375.03;5078448;28;20367;-39
2022/06/06 13:53:46;;;;;;;1.60;1.50;;;;;;;23.46;60.43;93384.53;5069840;28;20064;-39
2022/06/06 13:56:14;;;;;;;5.55;4.45;;;;;;;23.59;57.97;93392.19;5090586;28;20020;-39
2022/06/06 13:58:58;;;;;;;4.35;3.85;;;;;;;23.52;55.35;93395.38;5090759;28;20028;-39
2022/06/06 14:01:48;;;;;;;6.03;4.03;;;;;;;23.23;55.41;93398.94;5090687;28;20424;-39
2022/06/06 14:04:45;;;;;;;3.85;3.53;;;;;;;23.17;55.49;93396.56;5090761;28;20030;-38
2022/06/06 14:07:19;;;;;;;6.68;3.88;;;;;;;22.98;56.38;93401.97;5090752;28;20024;-39